Time;durP1;ratioP1;P1;durP2;ratioP2;P2;SDS_P1;SDS_P2;PMS_P1;PMS_P2;Temp;Humidity;BMP_temperature;BMP_pressure;BME280_temperature;BME280_humidity;BME280_pressure;Samples;Min_cycle;Max_cycle;Signal;HPM_P1;HPM_P2
2021/03/12 00:47:27;;;;;;;2.80;0.70;;;8.40;98.80;;;;;;4852739;29;20459;-92
2021/03/12 00:54:17;;;;;;;5.80;1.10;;;8.50;97.10;;;;;;4904779;29;20543;-91
2021/03/12 00:57:37;;;;;;;5.50;1.40;;;8.50;97.60;;;;;;4888778;29;20498;-92
2021/03/12 02:40:51;;;;;;;2.63;1.00;;;7.80;95.00;;;;;;5007339;28;20446;-94
2021/03/12 02:47:14;;;;;;;;;;;;;;;;;;;;;
2021/03/12 02:50:28;;;;;;;;;;;;;;;;;;;;;
2021/03/12 02:53:20;;;;;;;3.30;0.80;;;7.70;95.20;;;;;;5005098;28;20473;-93
2021/03/12 02:56:03;;;;;;;2.10;1.07;;;7.60;95.10;;;;;;5007111;28;20452;-93
2021/03/12 02:58:50;;;;;;;6.17;1.43;;;7.70;94.80;;;;;;5014479;28;20457;-90
2021/03/12 03:01:52;;;;;;;2.00;1.10;;;7.70;94.50;;;;;;5006424;28;20489;-93
2021/03/12 03:04:51;;;;;;;5.00;1.30;;;7.60;94.30;;;;;;5016025;28;20482;-92
2021/03/12 03:07:53;;;;;;;4.33;1.27;;;7.60;94.50;;;;;;5016835;28;20474;-93
2021/03/12 03:10:57;;;;;;;2.30;1.17;;;7.60;93.50;;;;;;5017422;28;20474;-91
2021/03/12 03:20:12;;;;;;;4.20;1.30;;;7.60;93.60;;;;;;4947143;28;20456;-90
2021/03/12 03:23:04;;;;;;;2.73;1.00;;;7.60;93.10;;;;;;5012986;28;20478;-91
2021/03/12 03:26:05;;;;;;;3.17;0.93;;;7.50;93.20;;;;;;5005423;28;20423;-92
2021/03/12 03:31:09;;;;;;;3.83;1.03;;;7.40;93.60;;;;;;5080499;23;20471;-94
2021/03/12 03:33:36;;;;;;;5.50;1.10;;;7.40;93.70;;;;;;5021471;28;20546;-93
2021/03/12 03:36:04;;;;;;;5.33;1.13;;;7.40;93.70;;;;;;5019146;28;20446;-92
2021/03/12 03:38:31;;;;;;;2.20;1.30;;;7.50;93.40;;;;;;5017066;28;20429;-93
2021/03/12 03:41:05;;;;;;;1.73;1.00;;;7.60;93.70;;;;;;5016380;28;20485;-94
2021/03/12 03:43:34;;;;;;;2.60;1.33;;;7.60;93.50;;;;;;5016093;28;20439;-93
2021/03/12 03:46:03;;;;;;;3.37;1.30;;;7.60;92.90;;;;;;5016643;28;21039;-93
2021/03/12 03:48:30;;;;;;;8.73;2.50;;;7.70;92.50;;;;;;5018644;28;20431;-92
2021/03/12 03:50:58;;;;;;;3.10;1.20;;;7.70;92.20;;;;;;5017595;28;20428;-92
2021/03/12 03:53:25;;;;;;;5.90;1.90;;;7.80;90.70;;;;;;5017434;28;20432;-93
2021/03/12 03:55:53;;;;;;;3.40;1.73;;;7.70;91.00;;;;;;5017393;28;20527;-93
2021/03/12 03:58:21;;;;;;;1.97;0.93;;;7.70;90.50;;;;;;5018174;28;20446;-94
2021/03/12 04:00:52;;;;;;;3.63;0.87;;;7.70;90.30;;;;;;5017332;28;20443;-94
2021/03/12 04:21:48;;;;;;;2.90;1.10;;;7.80;85.90;;;;;;1226435;23;20486;-92
2021/03/12 04:24:32;;;;;;;2.00;0.80;;;7.80;85.80;;;;;;5018480;28;20474;-89
2021/03/12 04:27:03;;;;;;;8.83;1.90;;;7.80;86.60;;;;;;5018496;28;20439;-92
2021/03/12 04:29:34;;;;;;;2.17;1.03;;;7.80;85.70;;;;;;5017192;28;20438;-93
2021/03/12 04:32:02;;;;;;;5.43;1.23;;;7.80;86.40;;;;;;5013816;28;20458;-93
2021/03/12 04:34:34;;;;;;;1.60;1.23;;;7.80;84.60;;;;;;5010206;28;20469;-91
2021/03/12 04:37:24;;;;;;;2.10;1.30;;;7.80;85.70;;;;;;5011650;28;20469;-92
2021/03/12 04:39:54;;;;;;;3.40;1.50;;;7.80;82.70;;;;;;5017816;28;20431;-92
2021/03/12 04:42:40;;;;;;;5.50;2.50;;;7.80;83.20;;;;;;5011644;28;20521;-92
2021/03/12 04:48:10;;;;;;;3.80;1.20;;;7.90;82.60;;;;;;5004479;28;20427;-92
2021/03/12 04:51:23;;;;;;;2.17;1.07;;;7.90;83.00;;;;;;5014932;28;20492;-94
2021/03/12 04:56:56;;;;;;;5.53;1.70;;;7.90;83.90;;;;;;4941954;28;20451;-89
2021/03/12 05:00:04;;;;;;;2.83;1.37;;;7.90;86.20;;;;;;5008904;28;20451;-91
2021/03/12 05:03:24;;;;;;;6.57;1.97;;;8.00;83.30;;;;;;4999676;28;20500;-91
2021/03/12 06:31:21;;;;;;;4.93;1.57;;;7.60;87.10;;;;;;5340036;23;20495;-93
2021/03/12 06:40:59;;;;;;;8.00;1.63;;;7.80;87.20;;;;;;4964563;28;20451;-94
2021/03/12 07:59:01;;;;;;;4.07;1.73;;;7.80;94.10;;;;;;1360515;26;20477;-92
2021/03/12 08:19:49;;;;;;;3.23;0.90;;;8.70;95.30;;;;;;4810270;29;20488;-87
2021/03/12 08:32:51;;;;;;;6.10;1.73;;;12.50;85.70;;;;;;4894007;29;20454;-89
2021/03/12 09:07:55;;;;;;;2.40;1.20;;;10.20;79.40;;;;;;4815954;29;20481;-89
2021/03/12 09:21:18;;;;;;;5.43;1.33;;;11.70;74.70;;;;;;4789468;29;20440;-89
2021/03/12 09:31:11;;;;;;;4.07;1.07;;;12.20;72.80;;;;;;4859010;29;20440;-90
2021/03/12 09:51:14;;;;;;;1.67;0.80;;;11.20;69.90;;;;;;4947638;28;20979;-93
2021/03/12 09:54:36;;;;;;;4.97;1.40;;;11.40;71.10;;;;;;4989449;28;20510;-93
2021/03/12 09:58:01;;;;;;;4.60;1.80;;;11.80;69.80;;;;;;4962791;28;20440;-92
2021/03/12 10:08:27;;;;;;;;;;;;;;;;;;;;;
2021/03/12 10:18:30;;;;;;;8.03;1.60;;;15.20;64.60;;;;;;4963757;28;20980;-93
2021/03/12 10:47:20;;;;;;;1.73;0.87;;;17.30;56.20;;;;;;5002684;28;20521;-91
2021/03/12 10:53:16;;;;;;;3.00;0.90;;;18.80;52.70;;;;;;4939794;28;20978;-89
2021/03/12 11:03:14;;;;;;;3.03;1.17;;;15.50;64.90;;;;;;4985225;28;20540;-91
2021/03/12 11:16:24;;;;;;;9.13;1.10;;;14.00;68.50;;;;;;4950737;28;21247;-93
2021/03/12 11:57:42;;;;;;;1.20;0.90;;;15.30;50.40;;;;;;4869492;29;20475;-91
2021/03/12 12:00:19;;;;;;;2.80;1.37;;;15.50;50.00;;;;;;4911981;29;20458;-90
2021/03/12 12:02:47;;;;;;;2.20;0.90;;;16.10;49.00;;;;;;4971115;28;20998;-92
2021/03/12 12:05:28;;;;;;;3.03;1.53;;;17.00;47.60;;;;;;4979135;28;20462;-91
2021/03/12 12:08:00;;;;;;;1.97;1.07;;;15.90;48.30;;;;;;4980728;28;20530;-91
2021/03/12 12:10:27;;;;;;;2.30;0.70;;;16.00;49.70;;;;;;4985037;28;20456;-92
2021/03/12 12:12:56;;;;;;;4.23;1.10;;;17.50;48.60;;;;;;4989524;28;20525;-93
2021/03/12 12:15:26;;;;;;;2.83;1.00;;;19.10;47.20;;;;;;4991211;28;20443;-93
2021/03/12 12:18:11;;;;;;;3.60;1.00;;;20.80;43.80;;;;;;4986437;28;20464;-92
2021/03/12 12:20:59;;;;;;;3.00;0.90;;;19.00;41.70;;;;;;4987638;28;20455;-92
2021/03/12 12:23:43;;;;;;;2.80;0.90;;;18.10;41.80;;;;;;4982262;28;20483;-92
2021/03/12 12:26:18;;;;;;;3.93;1.00;;;17.00;42.60;;;;;;4970823;28;20485;-90
2021/03/12 12:28:59;;;;;;;4.67;1.13;;;17.20;44.80;;;;;;4990381;28;20464;-90
2021/03/12 12:31:34;;;;;;;2.70;1.30;;;17.20;43.90;;;;;;5000043;28;20485;-92
2021/03/12 12:34:11;;;;;;;2.03;0.90;;;16.60;44.70;;;;;;4992767;28;20435;-91
2021/03/12 12:36:53;;;;;;;;;;;;;;;;;;;;;
2021/03/12 12:39:31;;;;;;;2.57;1.40;;;17.50;43.60;;;;;;5000699;28;20455;-92
2021/03/12 12:41:57;;;;;;;2.70;2.07;;;15.60;44.70;;;;;;4984652;28;20590;-91
2021/03/12 12:44:33;;;;;;;3.20;1.37;;;14.70;47.60;;;;;;4988942;28;20482;-92
2021/03/12 12:47:09;;;;;;;2.70;1.33;;;14.80;50.20;;;;;;4990876;28;20458;-91
2021/03/12 12:49:42;;;;;;;3.03;0.97;;;14.70;51.10;;;;;;4983450;28;20453;-90
2021/03/12 12:52:10;;;;;;;6.53;2.00;;;14.50;51.20;;;;;;4991904;28;20513;-91
2021/03/12 12:54:39;;;;;;;2.80;1.43;;;15.10;51.30;;;;;;4999342;28;20488;-91
2021/03/12 12:57:17;;;;;;;4.50;1.10;;;15.80;50.20;;;;;;5003094;28;20447;-90
2021/03/12 12:59:44;;;;;;;3.03;1.07;;;15.50;49.00;;;;;;4996870;28;20489;-91
2021/03/12 13:02:15;;;;;;;3.10;1.47;;;15.10;49.60;;;;;;4999656;28;20532;-91
2021/03/12 13:04:46;;;;;;;5.00;1.47;;;14.80;50.30;;;;;;4997236;28;20464;-90
2021/03/12 13:07:19;;;;;;;2.20;1.43;;;14.30;50.50;;;;;;5002666;28;20442;-90
2021/03/12 13:09:48;;;;;;;3.10;1.50;;;14.20;52.60;;;;;;5017972;28;20469;-90
2021/03/12 13:12:14;;;;;;;5.03;2.63;;;14.20;53.60;;;;;;5005547;28;20694;-89
2021/03/12 13:14:45;;;;;;;4.90;2.70;;;14.50;52.80;;;;;;5005652;28;20467;-93
2021/03/12 13:17:12;;;;;;;5.63;3.07;;;14.80;52.30;;;;;;4994019;28;20444;-92
2021/03/12 13:19:48;;;;;;;6.00;4.03;;;15.10;51.70;;;;;;4997059;28;20427;-92
2021/03/12 13:22:22;;;;;;;4.10;2.73;;;15.40;51.10;;;;;;5007097;28;20480;-91
2021/03/12 13:24:53;;;;;;;4.50;2.00;;;16.00;51.00;;;;;;5009478;28;20511;-91
2021/03/12 13:27:26;;;;;;;4.90;1.93;;;18.10;48.60;;;;;;5003500;28;20535;-92
2021/03/12 13:29:52;;;;;;;4.57;2.17;;;19.10;46.30;;;;;;4985093;28;20471;-94
2021/03/12 13:32:27;;;;;;;4.27;1.60;;;19.50;44.50;;;;;;4999699;28;20459;-92
2021/03/12 13:35:01;;;;;;;1.43;1.27;;;19.80;42.90;;;;;;5000048;28;20478;-92
2021/03/12 13:37:45;;;;;;;4.33;1.00;;;18.90;42.90;;;;;;4997339;28;21035;-93
2021/03/12 13:40:16;;;;;;;3.00;1.20;;;16.50;44.30;;;;;;4989603;28;20451;-93
2021/03/12 13:42:43;;;;;;;8.73;5.87;;;14.90;45.90;;;;;;4991295;28;20476;-91
2021/03/12 13:45:12;;;;;;;4.27;1.87;;;14.10;48.20;;;;;;4997046;28;20461;-93
2021/03/12 13:48:00;;;;;;;3.63;1.50;;;13.40;49.10;;;;;;4990336;28;20452;-92
2021/03/12 13:50:30;;;;;;;2.67;1.13;;;12.90;50.60;;;;;;5077620;23;20786;-87
2021/03/12 13:52:56;;;;;;;4.33;1.40;;;12.60;51.80;;;;;;5005424;28;20451;-88
2021/03/12 13:55:23;;;;;;;3.77;1.30;;;12.70;51.90;;;;;;4996334;28;20439;-89
2021/03/12 13:57:49;;;;;;;1.90;1.10;;;12.80;52.00;;;;;;4989961;28;20488;-89
2021/03/12 14:00:17;;;;;;;2.10;1.10;;;12.60;51.50;;;;;;4992518;28;20474;-89
2021/03/12 14:02:49;;;;;;;3.30;1.37;;;12.70;51.40;;;;;;4993070;28;20514;-85
2021/03/12 14:05:17;;;;;;;5.70;1.10;;;13.10;51.50;;;;;;4978451;28;20445;-90
2021/03/12 14:07:45;;;;;;;2.40;0.83;;;12.90;50.10;;;;;;4981497;28;20496;-90
2021/03/12 14:10:13;;;;;;;2.33;1.23;;;12.70;50.10;;;;;;4998280;28;20468;-88
2021/03/12 14:12:39;;;;;;;3.27;1.30;;;12.40;51.20;;;;;;4998721;28;20452;-88
2021/03/12 14:15:07;;;;;;;6.10;2.00;;;12.30;51.80;;;;;;4991077;28;20460;-90
2021/03/12 14:17:34;;;;;;;4.30;1.40;;;12.50;51.80;;;;;;4996794;28;20440;-91
2021/03/12 14:20:00;;;;;;;3.20;1.20;;;12.40;51.80;;;;;;4985826;28;20474;-90
2021/03/12 14:22:26;;;;;;;2.03;1.30;;;12.20;52.30;;;;;;4982456;28;20490;-88
2021/03/12 14:24:54;;;;;;;4.70;1.20;;;12.40;52.90;;;;;;4979652;28;20452;-88
2021/03/12 14:27:20;;;;;;;3.07;1.20;;;12.50;52.60;;;;;;4982699;28;20453;-89
2021/03/12 14:29:46;;;;;;;5.60;1.70;;;12.50;53.10;;;;;;4985117;28;20468;-89
2021/03/12 14:32:14;;;;;;;4.13;1.40;;;12.50;53.00;;;;;;4982008;28;20445;-91
2021/03/12 14:34:40;;;;;;;4.33;2.10;;;12.70;53.30;;;;;;4970521;28;20529;-91
2021/03/12 14:37:06;;;;;;;2.63;1.17;;;13.50;52.70;;;;;;4979903;28;20452;-92
2021/03/12 14:39:33;;;;;;;5.20;1.80;;;14.10;51.60;;;;;;4981719;28;20475;-89
2021/03/12 14:42:01;;;;;;;5.23;2.43;;;14.10;51.20;;;;;;4987259;28;20512;-90
2021/03/12 14:44:28;;;;;;;4.10;1.30;;;14.00;52.30;;;;;;4992696;28;20483;-90
2021/03/12 14:46:55;;;;;;;3.23;1.30;;;13.80;51.50;;;;;;4976193;28;20977;-91
2021/03/12 14:49:21;;;;;;;3.43;1.53;;;13.40;51.10;;;;;;4965590;28;21267;-90
2021/03/12 14:51:48;;;;;;;3.90;2.43;;;13.20;52.20;;;;;;4979057;28;20470;-91
2021/03/12 14:54:14;;;;;;;6.47;3.80;;;13.20;52.00;;;;;;4974265;28;20457;-91
2021/03/12 14:56:41;;;;;;;4.50;1.60;;;13.00;53.30;;;;;;4984889;28;20456;-90
2021/03/12 14:59:08;;;;;;;4.03;2.23;;;13.30;53.70;;;;;;4991010;28;20458;-90
2021/03/12 15:01:34;;;;;;;2.47;1.33;;;13.20;54.70;;;;;;4985606;28;20480;-89
2021/03/12 15:04:00;;;;;;;6.17;2.30;;;13.40;53.90;;;;;;4983349;28;20480;-89
2021/03/12 15:06:30;;;;;;;10.53;5.27;;;13.40;54.00;;;;;;4982107;28;20881;-87
2021/03/12 15:08:57;;;;;;;3.00;1.30;;;13.60;54.60;;;;;;4981758;28;20493;-89
2021/03/12 15:11:23;;;;;;;5.33;2.23;;;12.90;55.20;;;;;;4983816;28;20472;-88
2021/03/12 15:13:49;;;;;;;4.80;2.60;;;12.40;57.40;;;;;;4983773;28;20444;-87
2021/03/12 15:16:16;;;;;;;5.60;1.73;;;12.40;57.90;;;;;;4986673;28;20453;-88
2021/03/12 15:18:43;;;;;;;5.07;1.57;;;12.20;59.00;;;;;;4988657;28;20459;-88
2021/03/12 15:21:09;;;;;;;3.60;1.30;;;12.00;60.30;;;;;;4970971;28;20473;-88
2021/03/12 15:23:35;;;;;;;3.47;1.23;;;11.80;61.60;;;;;;4985059;28;20506;-88
2021/03/12 15:26:02;;;;;;;2.50;1.60;;;11.50;63.20;;;;;;4983138;28;20814;-89
2021/03/12 15:28:28;;;;;;;3.30;1.00;;;11.50;64.20;;;;;;4995609;28;20459;-88
2021/03/12 15:30:55;;;;;;;4.63;1.73;;;11.80;63.80;;;;;;4994526;28;20481;-89
2021/03/12 15:33:22;;;;;;;6.53;2.47;;;12.30;62.90;;;;;;4983940;28;20436;-89
2021/03/12 15:35:48;;;;;;;1.47;1.10;;;12.50;60.70;;;;;;4986269;28;20795;-89
2021/03/12 15:38:14;;;;;;;2.30;1.00;;;12.60;59.00;;;;;;4998347;28;20464;-90
2021/03/12 15:40:41;;;;;;;1.90;1.27;;;12.80;57.80;;;;;;4997287;28;20574;-88
2021/03/12 15:43:07;;;;;;;2.40;1.33;;;12.90;57.80;;;;;;4989619;28;20476;-88
2021/03/12 15:45:33;;;;;;;2.40;2.20;;;13.10;56.60;;;;;;4981526;28;20459;-89
2021/03/12 15:47:59;;;;;;;1.50;0.60;;;13.20;56.70;;;;;;4983200;28;20457;-90
2021/03/12 15:50:26;;;;;;;3.60;1.57;;;13.20;56.30;;;;;;4985814;28;20484;-89
2021/03/12 15:52:53;;;;;;;1.50;1.17;;;13.50;56.70;;;;;;4991146;28;20456;-89
2021/03/12 15:55:23;;;;;;;2.70;1.17;;;13.50;56.10;;;;;;4970174;28;20445;-89
2021/03/12 15:57:50;;;;;;;1.70;1.20;;;13.40;57.10;;;;;;4981717;28;20461;-89
2021/03/12 16:00:17;;;;;;;3.53;1.47;;;13.40;57.30;;;;;;4970905;28;20473;-89
2021/03/12 16:02:43;;;;;;;3.47;1.00;;;13.10;57.00;;;;;;4980406;28;20481;-88
2021/03/12 16:05:11;;;;;;;3.73;1.30;;;12.50;57.40;;;;;;4995117;28;20450;-90
2021/03/12 16:07:39;;;;;;;3.37;1.17;;;12.20;58.40;;;;;;4995125;28;20510;-90
2021/03/12 16:10:08;;;;;;;3.73;1.20;;;12.10;59.00;;;;;;4985249;28;20503;-89
2021/03/12 16:12:35;;;;;;;3.10;1.10;;;11.90;59.80;;;;;;4986110;28;20448;-90
2021/03/12 16:15:01;;;;;;;5.77;1.50;;;11.90;60.20;;;;;;4990282;28;20440;-88
2021/03/12 16:17:28;;;;;;;3.70;1.10;;;11.80;61.00;;;;;;4996953;28;20428;-90
2021/03/12 16:19:54;;;;;;;7.00;1.70;;;11.70;60.20;;;;;;4995712;28;20448;-89
2021/03/12 16:22:20;;;;;;;2.50;1.33;;;11.60;61.60;;;;;;4992883;28;20480;-89
2021/03/12 16:24:48;;;;;;;13.93;3.30;;;11.40;63.00;;;;;;4991160;28;20456;-89
2021/03/12 16:27:16;;;;;;;2.27;1.17;;;11.20;64.40;;;;;;4992278;28;20528;-87
2021/03/12 16:29:45;;;;;;;4.20;1.70;;;11.10;65.60;;;;;;4989832;28;20463;-90
2021/03/12 16:32:13;;;;;;;2.10;1.00;;;10.90;66.70;;;;;;4990427;28;20442;-89
2021/03/12 16:34:40;;;;;;;2.10;1.00;;;10.90;67.40;;;;;;4987950;28;20444;-89
2021/03/12 16:37:07;;;;;;;2.67;1.67;;;10.80;67.90;;;;;;4987734;28;20532;-89
2021/03/12 16:39:34;;;;;;;5.30;1.30;;;10.70;68.90;;;;;;4987372;28;20463;-89
2021/03/12 16:42:01;;;;;;;3.90;1.20;;;10.70;69.90;;;;;;4980181;28;20437;-88
2021/03/12 16:44:27;;;;;;;3.93;1.40;;;10.70;70.50;;;;;;4979807;28;20534;-88
2021/03/12 16:46:56;;;;;;;6.03;1.43;;;10.70;70.90;;;;;;4988160;28;21044;-88
2021/03/12 16:49:23;;;;;;;2.77;1.10;;;10.60;70.50;;;;;;4981822;28;20526;-88
2021/03/12 16:51:49;;;;;;;5.63;1.40;;;10.60;70.50;;;;;;4979926;28;20483;-88
2021/03/12 16:54:15;;;;;;;3.90;1.40;;;10.60;70.80;;;;;;4971375;28;20449;-89
2021/03/12 16:56:42;;;;;;;3.53;1.30;;;10.50;70.70;;;;;;4978763;28;20538;-89
2021/03/12 16:59:09;;;;;;;3.80;1.60;;;10.50;70.70;;;;;;4970664;28;20456;-89
2021/03/12 17:01:37;;;;;;;2.50;1.50;;;10.50;70.90;;;;;;4973439;28;20452;-88
2021/03/12 17:04:04;;;;;;;2.40;1.23;;;10.50;71.10;;;;;;4985434;28;20479;-89
2021/03/12 17:06:34;;;;;;;4.47;1.37;;;10.40;71.00;;;;;;4988059;28;20451;-89
2021/03/12 17:09:01;;;;;;;3.93;1.90;;;10.40;71.30;;;;;;4984909;28;20448;-89
2021/03/12 17:11:28;;;;;;;2.40;1.03;;;10.30;71.90;;;;;;4991118;28;20459;-88
2021/03/12 17:13:55;;;;;;;4.50;1.60;;;10.30;71.80;;;;;;5001635;28;20451;-90
2021/03/12 17:16:22;;;;;;;5.00;1.60;;;10.30;72.00;;;;;;5001564;28;20452;-90
2021/03/12 17:18:49;;;;;;;4.30;1.60;;;10.20;71.90;;;;;;5001633;28;20440;-90
2021/03/12 17:21:17;;;;;;;5.53;1.60;;;10.20;72.20;;;;;;4990728;28;20467;-90
2021/03/12 17:23:43;;;;;;;4.87;2.03;;;10.10;72.70;;;;;;5001907;28;20580;-87
2021/03/12 17:26:10;;;;;;;5.23;1.43;;;10.10;72.50;;;;;;5002220;28;20427;-88
2021/03/12 17:28:46;;;;;;;5.60;1.83;;;10.00;72.40;;;;;;5002047;28;20450;-88
2021/03/12 17:31:13;;;;;;;7.77;2.40;;;10.00;72.10;;;;;;5000273;28;20539;-88
2021/03/12 17:33:42;;;;;;;8.13;1.93;;;10.00;72.70;;;;;;4990395;28;20451;-88
2021/03/12 17:36:10;;;;;;;5.80;2.00;;;10.00;73.00;;;;;;4988212;28;20467;-89
2021/03/12 17:38:37;;;;;;;4.80;1.97;;;10.00;73.00;;;;;;4985920;28;20467;-89
2021/03/12 17:41:03;;;;;;;3.47;1.50;;;10.00;73.10;;;;;;4978319;28;20555;-89
2021/03/12 17:43:30;;;;;;;3.30;1.53;;;9.90;74.30;;;;;;4987887;28;21499;-88
2021/03/12 17:45:56;;;;;;;4.30;1.87;;;9.90;74.20;;;;;;4987210;28;20445;-88
2021/03/12 17:48:23;;;;;;;4.40;1.40;;;9.90;74.30;;;;;;4999576;28;20466;-89
2021/03/12 17:50:51;;;;;;;3.70;1.73;;;9.90;74.60;;;;;;5000317;28;20573;-88
2021/03/12 17:53:17;;;;;;;8.00;1.80;;;9.90;74.40;;;;;;4988811;28;20452;-89
2021/03/12 17:55:43;;;;;;;11.73;2.93;;;9.90;74.20;;;;;;5000291;28;20460;-88
2021/03/12 17:58:10;;;;;;;6.87;1.67;;;9.90;73.80;;;;;;4999399;28;20506;-88
2021/03/12 18:00:37;;;;;;;5.40;1.77;;;9.90;73.50;;;;;;4995564;28;20977;-89
2021/03/12 18:03:04;;;;;;;4.77;2.23;;;9.90;73.50;;;;;;4996581;28;20510;-89
2021/03/12 18:05:30;;;;;;;3.87;2.03;;;9.90;73.20;;;;;;4989187;28;20463;-89
2021/03/12 18:07:57;;;;;;;3.37;1.43;;;9.90;73.10;;;;;;4990119;28;20515;-88
2021/03/12 18:10:24;;;;;;;2.23;1.40;;;9.80;73.40;;;;;;4985179;28;20467;-88
2021/03/12 18:12:50;;;;;;;5.27;1.63;;;9.80;73.30;;;;;;4985977;28;20452;-88
2021/03/12 18:15:17;;;;;;;7.10;2.80;;;9.80;73.20;;;;;;4968889;28;20943;-89
2021/03/12 18:17:44;;;;;;;5.80;1.70;;;9.90;73.60;;;;;;4999276;28;20444;-88
2021/03/12 18:20:13;;;;;;;4.87;1.97;;;9.80;73.30;;;;;;4990067;28;20483;-88
2021/03/12 18:22:40;;;;;;;8.00;2.07;;;9.80;73.30;;;;;;4994333;28;20485;-88
2021/03/12 18:25:11;;;;;;;5.50;2.50;;;9.90;73.40;;;;;;4997340;28;20500;-87
2021/03/12 18:27:38;;;;;;;2.50;1.37;;;9.80;73.70;;;;;;4977449;28;20524;-89
2021/03/12 18:30:06;;;;;;;3.43;1.67;;;9.80;73.50;;;;;;4989500;28;20472;-89
2021/03/12 18:32:32;;;;;;;6.50;2.47;;;9.80;73.30;;;;;;4987718;28;20892;-89
2021/03/12 18:34:58;;;;;;;4.57;1.80;;;9.80;73.90;;;;;;4992908;28;20428;-88
2021/03/12 18:37:25;;;;;;;6.87;2.10;;;9.80;74.00;;;;;;4987560;28;20511;-89
2021/03/12 18:39:51;;;;;;;3.63;1.23;;;9.70;73.90;;;;;;4989229;28;20479;-87
2021/03/12 18:42:18;;;;;;;3.73;1.47;;;9.70;74.30;;;;;;4998914;28;20448;-88
2021/03/12 18:44:45;;;;;;;7.53;1.80;;;9.70;74.50;;;;;;4990750;28;20504;-89
2021/03/12 18:47:11;;;;;;;2.63;1.43;;;9.70;74.70;;;;;;4987805;28;20487;-88
2021/03/12 18:49:37;;;;;;;6.87;1.47;;;9.70;75.00;;;;;;4985407;28;20502;-89
2021/03/12 18:52:05;;;;;;;33.67;24.40;;;9.70;75.20;;;;;;4985250;28;20456;-88
2021/03/12 18:54:31;;;;;;;3.50;1.70;;;9.60;75.50;;;;;;4985283;28;20458;-88
2021/03/12 18:56:59;;;;;;;5.90;2.17;;;9.60;75.80;;;;;;4985591;28;20483;-89
2021/03/12 18:59:28;;;;;;;4.20;1.93;;;9.60;75.90;;;;;;4985019;28;20483;-89
2021/03/12 19:01:54;;;;;;;5.10;1.90;;;9.60;76.10;;;;;;4986139;28;20456;-89
2021/03/12 19:34:48;;;;;;;5.00;1.47;;;9.40;76.40;;;;;;4634935;26;20467;-90
2021/03/12 19:37:38;;;;;;;5.20;1.53;;;9.40;76.20;;;;;;4990443;28;20447;-91
2021/03/12 19:40:12;;;;;;;7.70;1.20;;;9.40;76.50;;;;;;4987937;28;20522;-91
2021/03/12 19:42:41;;;;;;;7.60;2.07;;;9.40;76.30;;;;;;4987052;28;20483;-89
2021/03/12 19:45:18;;;;;;;5.50;1.73;;;9.30;76.60;;;;;;4994371;28;20471;-91
2021/03/12 19:51:15;;;;;;;5.23;2.47;;;9.30;76.70;;;;;;4996897;28;20427;-92
2021/03/12 19:54:15;;;;;;;8.57;2.40;;;9.30;77.00;;;;;;4990178;28;20498;-91
2021/03/12 19:56:46;;;;;;;6.90;1.63;;;9.40;76.80;;;;;;4991218;28;20504;-90
2021/03/12 19:59:18;;;;;;;6.37;3.10;;;9.30;77.10;;;;;;4995231;28;20436;-89
2021/03/12 20:01:53;;;;;;;3.63;1.30;;;9.40;77.00;;;;;;4997304;28;20448;-90
2021/03/12 20:04:32;;;;;;;6.97;1.87;;;9.30;77.40;;;;;;4993052;28;20471;-91
2021/03/12 20:07:01;;;;;;;2.67;1.50;;;9.30;77.70;;;;;;4990513;28;20448;-89
2021/03/12 20:09:43;;;;;;;2.80;1.47;;;9.30;77.80;;;;;;4986504;28;20452;-91
2021/03/12 20:12:36;;;;;;;3.93;1.73;;;9.30;77.80;;;;;;4988371;28;20471;-88
2021/03/12 20:15:04;;;;;;;4.60;1.70;;;9.30;77.90;;;;;;4986121;28;20420;-91
2021/03/12 20:17:34;;;;;;;7.00;2.10;;;9.30;77.90;;;;;;4995689;28;20475;-91
2021/03/12 20:20:07;;;;;;;3.40;1.37;;;9.20;78.40;;;;;;4997340;28;20428;-90
2021/03/12 20:22:36;;;;;;;3.67;1.50;;;9.20;78.40;;;;;;4991752;28;20506;-87
2021/03/12 20:25:13;;;;;;;5.67;1.70;;;9.20;78.30;;;;;;4996951;28;20443;-88
2021/03/12 20:27:43;;;;;;;4.90;1.50;;;9.20;78.50;;;;;;4989216;28;20452;-90
2021/03/12 20:30:20;;;;;;;3.70;1.90;;;9.20;78.40;;;;;;4990177;28;20460;-91
2021/03/12 20:32:50;;;;;;;5.60;1.87;;;9.20;78.50;;;;;;4990197;28;20487;-89
2021/03/12 20:35:32;;;;;;;8.17;2.33;;;9.20;78.20;;;;;;4988963;28;20448;-90
2021/03/12 20:38:12;;;;;;;8.33;1.67;;;9.20;78.30;;;;;;4989754;28;20460;-91
2021/03/12 20:40:48;;;;;;;2.30;1.37;;;9.20;78.70;;;;;;4972630;28;20830;-90
2021/03/12 20:43:32;;;;;;;6.47;1.67;;;9.20;78.30;;;;;;4972498;28;20491;-90
2021/03/12 20:46:06;;;;;;;4.17;1.57;;;9.30;78.30;;;;;;4969617;28;20531;-91
2021/03/12 20:48:42;;;;;;;6.27;1.43;;;9.20;78.60;;;;;;4980162;28;20449;-91
2021/03/12 20:51:09;;;;;;;7.17;1.97;;;9.30;78.40;;;;;;4994062;28;20466;-91
2021/03/12 20:53:44;;;;;;;7.00;1.77;;;9.30;78.00;;;;;;5001233;28;20475;-90
2021/03/12 20:56:11;;;;;;;4.90;1.90;;;9.30;77.50;;;;;;4991767;28;20428;-92
2021/03/12 20:58:42;;;;;;;6.37;1.50;;;9.40;77.60;;;;;;4990895;28;20452;-90
2021/03/12 21:01:13;;;;;;;8.17;2.27;;;9.40;77.10;;;;;;4995758;28;20522;-89
2021/03/12 21:03:43;;;;;;;4.57;1.63;;;9.40;77.10;;;;;;5001559;28;20479;-90
2021/03/12 21:06:12;;;;;;;6.60;1.57;;;9.40;77.00;;;;;;5001492;28;20431;-91
2021/03/12 21:08:42;;;;;;;3.60;1.60;;;9.40;76.70;;;;;;4995406;28;20436;-90
2021/03/12 21:11:09;;;;;;;3.43;1.60;;;9.50;76.50;;;;;;5002059;28;20447;-88
2021/03/12 21:13:42;;;;;;;5.23;1.70;;;9.50;76.30;;;;;;4991530;28;20833;-91
2021/03/12 21:16:11;;;;;;;4.90;2.60;;;9.50;76.40;;;;;;4997367;28;20443;-91
2021/03/12 21:18:41;;;;;;;2.20;1.70;;;9.60;76.40;;;;;;4996458;28;20576;-90
2021/03/12 21:21:14;;;;;;;5.80;1.63;;;9.60;76.60;;;;;;4990317;28;20927;-91
2021/03/12 21:23:44;;;;;;;2.60;1.20;;;9.60;76.40;;;;;;4999338;28;20467;-88
2021/03/12 21:26:14;;;;;;;2.50;1.50;;;9.60;76.40;;;;;;5001419;28;20527;-88
2021/03/12 21:28:42;;;;;;;6.27;1.20;;;9.60;76.40;;;;;;4994707;28;20448;-89
2021/03/12 21:31:09;;;;;;;4.23;2.27;;;9.70;75.90;;;;;;4988288;28;20448;-90
2021/03/12 21:33:35;;;;;;;6.60;2.37;;;9.80;75.80;;;;;;4986603;28;20478;-91
2021/03/12 21:36:11;;;;;;;6.50;2.80;;;9.80;75.40;;;;;;4992454;28;20467;-91
2021/03/12 21:38:44;;;;;;;4.57;1.40;;;9.90;75.50;;;;;;4993318;28;20436;-91
2021/03/12 21:41:40;;;;;;;3.63;0.80;;;9.90;78.40;;;;;;5002267;28;20458;-91
2021/03/12 21:44:54;;;;;;;6.00;1.00;;;9.30;87.90;;;;;;4969892;28;20508;-93
2021/03/12 22:05:57;;;;;;;0.77;0.60;;;6.70;99.90;;;;;;4758284;30;20423;-90
2021/03/12 22:08:31;;;;;;;3.87;1.20;;;6.60;99.90;;;;;;4733713;30;20445;-90
2021/03/12 22:24:46;;;;;;;1.73;0.50;;;6.40;99.90;;;;;;4786702;29;20500;-91
2021/03/12 22:31:00;;;;;;;1.10;0.37;;;6.40;99.90;;;;;;5004609;28;20454;-90
2021/03/12 22:33:29;;;;;;;0.70;0.40;;;6.30;99.90;;;;;;4991869;28;20475;-91
2021/03/12 23:04:25;;;;;;;2.17;0.60;;;6.50;99.90;;;;;;4971002;26;20876;-87
2021/03/12 23:06:51;;;;;;;1.30;0.60;;;6.50;99.90;;;;;;5008331;28;20513;-87
2021/03/12 23:09:17;;;;;;;0.60;0.50;;;6.50;99.90;;;;;;5018675;28;20442;-85
2021/03/12 23:11:44;;;;;;;1.10;0.50;;;6.50;99.90;;;;;;5007855;28;20458;-87
2021/03/12 23:14:11;;;;;;;0.80;0.50;;;6.50;99.90;;;;;;5005147;28;20443;-87
2021/03/12 23:16:37;;;;;;;1.27;0.63;;;6.50;99.90;;;;;;5005222;28;20453;-88
2021/03/12 23:19:07;;;;;;;0.80;0.43;;;6.40;99.90;;;;;;5010725;28;20467;-91
